sensor_id;sensor_type;location;lat;lon;timestamp;P1;durP1;ratioP1;P2;durP2;ratioP2
4517;SDS011;2271;49.464;11.070;2023-04-28T00:01:41;5.03;;;3.30;;
4517;SDS011;2271;49.464;11.070;2023-04-28T00:04:07;3.72;;;2.80;;
4517;SDS011;2271;49.464;11.070;2023-04-28T00:06:33;4.85;;;2.75;;
4517;SDS011;2271;49.464;11.070;2023-04-28T00:08:59;4.55;;;2.65;;
4517;SDS011;2271;49.464;11.070;2023-04-28T00:11:24;4.63;;;3.25;;
4517;SDS011;2271;49.464;11.070;2023-04-28T00:13:50;4.32;;;2.92;;
4517;SDS011;2271;49.464;11.070;2023-04-28T00:16:16;5.63;;;3.17;;
4517;SDS011;2271;49.464;11.070;2023-04-28T00:18:41;5.47;;;3.00;;
4517;SDS011;2271;49.464;11.070;2023-04-28T00:21:07;9.88;;;3.00;;
4517;SDS011;2271;49.464;11.070;2023-04-28T00:23:33;6.03;;;3.08;;
4517;SDS011;2271;49.464;11.070;2023-04-28T00:25:59;5.70;;;3.08;;
4517;SDS011;2271;49.464;11.070;2023-04-28T00:28:25;5.15;;;3.42;;
4517;SDS011;2271;49.464;11.070;2023-04-28T00:30:50;4.32;;;3.05;;
4517;SDS011;2271;49.464;11.070;2023-04-28T00:33:16;5.00;;;3.17;;
4517;SDS011;2271;49.464;11.070;2023-04-28T00:35:41;4.50;;;3.20;;
4517;SDS011;2271;49.464;11.070;2023-04-28T00:38:07;4.53;;;2.63;;
4517;SDS011;2271;49.464;11.070;2023-04-28T00:40:33;8.35;;;3.00;;
4517;SDS011;2271;49.464;11.070;2023-04-28T00:42:59;8.20;;;3.45;;
4517;SDS011;2271;49.464;11.070;2023-04-28T00:45:25;5.00;;;2.97;;
4517;SDS011;2271;49.464;11.070;2023-04-28T00:47:51;8.25;;;3.72;;
4517;SDS011;2271;49.464;11.070;2023-04-28T00:50:16;5.05;;;3.15;;
4517;SDS011;2271;49.464;11.070;2023-04-28T00:52:42;3.90;;;2.80;;
4517;SDS011;2271;49.464;11.070;2023-04-28T00:55:08;5.00;;;2.88;;
4517;SDS011;2271;49.464;11.070;2023-04-28T00:57:34;5.70;;;3.20;;
4517;SDS011;2271;49.464;11.070;2023-04-28T01:00:01;4.65;;;3.45;;
4517;SDS011;2271;49.464;11.070;2023-04-28T01:02:27;5.63;;;3.30;;
4517;SDS011;2271;49.464;11.070;2023-04-28T01:04:54;5.50;;;3.67;;
4517;SDS011;2271;49.464;11.070;2023-04-28T01:07:21;6.15;;;3.45;;
4517;SDS011;2271;49.464;11.070;2023-04-28T01:09:46;3.00;;;2.45;;
4517;SDS011;2271;49.464;11.070;2023-04-28T01:12:12;9.30;;;3.00;;
4517;SDS011;2271;49.464;11.070;2023-04-28T01:14:38;5.07;;;3.00;;
4517;SDS011;2271;49.464;11.070;2023-04-28T01:17:04;4.37;;;2.77;;
4517;SDS011;2271;49.464;11.070;2023-04-28T01:19:30;6.05;;;3.50;;
4517;SDS011;2271;49.464;11.070;2023-04-28T01:21:55;3.33;;;2.92;;
4517;SDS011;2271;49.464;11.070;2023-04-28T01:24:21;8.85;;;2.58;;
4517;SDS011;2271;49.464;11.070;2023-04-28T01:26:47;6.95;;;3.38;;
4517;SDS011;2271;49.464;11.070;2023-04-28T01:29:12;7.20;;;3.35;;
4517;SDS011;2271;49.464;11.070;2023-04-28T01:31:38;4.32;;;3.75;;
4517;SDS011;2271;49.464;11.070;2023-04-28T01:34:04;6.07;;;3.20;;
4517;SDS011;2271;49.464;11.070;2023-04-28T01:36:30;4.25;;;3.67;;
4517;SDS011;2271;49.464;11.070;2023-04-28T01:38:56;7.45;;;3.60;;
4517;SDS011;2271;49.464;11.070;2023-04-28T01:41:21;3.63;;;2.90;;
4517;SDS011;2271;49.464;11.070;2023-04-28T01:43:47;7.38;;;3.75;;
4517;SDS011;2271;49.464;11.070;2023-04-28T01:46:12;5.20;;;2.90;;
4517;SDS011;2271;49.464;11.070;2023-04-28T01:48:38;6.05;;;3.20;;
4517;SDS011;2271;49.464;11.070;2023-04-28T01:51:04;7.93;;;3.15;;
4517;SDS011;2271;49.464;11.070;2023-04-28T01:53:30;4.93;;;2.70;;
4517;SDS011;2271;49.464;11.070;2023-04-28T01:55:55;4.87;;;3.70;;
4517;SDS011;2271;49.464;11.070;2023-04-28T01:58:22;5.70;;;3.55;;
4517;SDS011;2271;49.464;11.070;2023-04-28T02:00:48;4.43;;;3.40;;
4517;SDS011;2271;49.464;11.070;2023-04-28T02:03:14;4.25;;;2.95;;
4517;SDS011;2271;49.464;11.070;2023-04-28T02:05:39;5.03;;;3.53;;
4517;SDS011;2271;49.464;11.070;2023-04-28T02:08:05;4.72;;;3.45;;
4517;SDS011;2271;49.464;11.070;2023-04-28T02:10:31;7.77;;;3.80;;
4517;SDS011;2271;49.464;11.070;2023-04-28T02:12:56;11.82;;;4.05;;
4517;SDS011;2271;49.464;11.070;2023-04-28T02:15:22;3.93;;;3.60;;
4517;SDS011;2271;49.464;11.070;2023-04-28T02:17:48;4.13;;;3.40;;
4517;SDS011;2271;49.464;11.070;2023-04-28T02:20:13;5.15;;;3.45;;
4517;SDS011;2271;49.464;11.070;2023-04-28T02:22:39;4.55;;;3.08;;
4517;SDS011;2271;49.464;11.070;2023-04-28T02:25:05;4.67;;;3.40;;
4517;SDS011;2271;49.464;11.070;2023-04-28T02:27:31;6.45;;;3.50;;
4517;SDS011;2271;49.464;11.070;2023-04-28T02:29:59;4.13;;;3.33;;
4517;SDS011;2271;49.464;11.070;2023-04-28T02:32:24;4.28;;;3.45;;
4517;SDS011;2271;49.464;11.070;2023-04-28T02:34:53;5.93;;;3.90;;
4517;SDS011;2271;49.464;11.070;2023-04-28T02:37:19;6.80;;;3.70;;
4517;SDS011;2271;49.464;11.070;2023-04-28T02:39:45;5.97;;;3.67;;
4517;SDS011;2271;49.464;11.070;2023-04-28T02:42:11;6.80;;;4.22;;
4517;SDS011;2271;49.464;11.070;2023-04-28T02:44:36;3.90;;;3.03;;
4517;SDS011;2271;49.464;11.070;2023-04-28T02:47:02;4.93;;;3.53;;
4517;SDS011;2271;49.464;11.070;2023-04-28T02:49:28;5.47;;;3.57;;
4517;SDS011;2271;49.464;11.070;2023-04-28T02:51:53;7.20;;;3.80;;
4517;SDS011;2271;49.464;11.070;2023-04-28T02:54:19;5.93;;;4.10;;
4517;SDS011;2271;49.464;11.070;2023-04-28T02:56:54;6.90;;;3.65;;
4517;SDS011;2271;49.464;11.070;2023-04-28T02:59:20;6.38;;;3.35;;
4517;SDS011;2271;49.464;11.070;2023-04-28T03:01:46;3.85;;;3.42;;
4517;SDS011;2271;49.464;11.070;2023-04-28T03:04:12;4.78;;;3.67;;
4517;SDS011;2271;49.464;11.070;2023-04-28T03:06:38;4.78;;;3.28;;
4517;SDS011;2271;49.464;11.070;2023-04-28T03:09:04;5.03;;;3.33;;
4517;SDS011;2271;49.464;11.070;2023-04-28T03:11:30;4.70;;;3.47;;
4517;SDS011;2271;49.464;11.070;2023-04-28T03:13:56;6.10;;;3.90;;
4517;SDS011;2271;49.464;11.070;2023-04-28T03:16:22;6.20;;;3.45;;
4517;SDS011;2271;49.464;11.070;2023-04-28T03:18:47;5.53;;;3.27;;
4517;SDS011;2271;49.464;11.070;2023-04-28T03:21:13;4.87;;;3.23;;
4517;SDS011;2271;49.464;11.070;2023-04-28T03:23:39;4.00;;;3.50;;
4517;SDS011;2271;49.464;11.070;2023-04-28T03:26:04;5.10;;;3.38;;
4517;SDS011;2271;49.464;11.070;2023-04-28T03:28:30;4.85;;;3.72;;
4517;SDS011;2271;49.464;11.070;2023-04-28T03:30:56;3.90;;;3.38;;
4517;SDS011;2271;49.464;11.070;2023-04-28T03:33:22;3.87;;;3.23;;
4517;SDS011;2271;49.464;11.070;2023-04-28T03:35:47;6.70;;;3.37;;
4517;SDS011;2271;49.464;11.070;2023-04-28T03:38:13;8.90;;;3.90;;
4517;SDS011;2271;49.464;11.070;2023-04-28T03:40:39;6.07;;;3.75;;
4517;SDS011;2271;49.464;11.070;2023-04-28T03:43:05;6.38;;;4.20;;
4517;SDS011;2271;49.464;11.070;2023-04-28T03:45:31;9.48;;;3.60;;
4517;SDS011;2271;49.464;11.070;2023-04-28T03:47:57;3.25;;;2.95;;
4517;SDS011;2271;49.464;11.070;2023-04-28T03:50:22;9.27;;;3.50;;
4517;SDS011;2271;49.464;11.070;2023-04-28T03:52:48;8.02;;;3.53;;
4517;SDS011;2271;49.464;11.070;2023-04-28T03:55:13;6.50;;;3.65;;
4517;SDS011;2271;49.464;11.070;2023-04-28T03:57:39;4.15;;;3.40;;
4517;SDS011;2271;49.464;11.070;2023-04-28T04:00:05;4.15;;;3.58;;
4517;SDS011;2271;49.464;11.070;2023-04-28T04:02:31;6.20;;;4.10;;
4517;SDS011;2271;49.464;11.070;2023-04-28T04:04:57;7.67;;;3.47;;
4517;SDS011;2271;49.464;11.070;2023-04-28T04:07:23;4.80;;;3.47;;
4517;SDS011;2271;49.464;11.070;2023-04-28T04:09:48;6.78;;;4.15;;
4517;SDS011;2271;49.464;11.070;2023-04-28T04:12:14;6.63;;;3.60;;
4517;SDS011;2271;49.464;11.070;2023-04-28T04:14:40;6.93;;;3.53;;
4517;SDS011;2271;49.464;11.070;2023-04-28T04:17:06;8.65;;;3.85;;
4517;SDS011;2271;49.464;11.070;2023-04-28T04:19:31;6.00;;;3.80;;
4517;SDS011;2271;49.464;11.070;2023-04-28T04:21:57;7.23;;;3.40;;
4517;SDS011;2271;49.464;11.070;2023-04-28T04:24:22;4.13;;;3.72;;
4517;SDS011;2271;49.464;11.070;2023-04-28T04:26:48;7.30;;;3.47;;
4517;SDS011;2271;49.464;11.070;2023-04-28T04:29:14;4.70;;;3.60;;
4517;SDS011;2271;49.464;11.070;2023-04-28T04:31:40;4.90;;;3.30;;
4517;SDS011;2271;49.464;11.070;2023-04-28T04:34:05;8.13;;;3.83;;
4517;SDS011;2271;49.464;11.070;2023-04-28T04:36:31;5.50;;;3.40;;
4517;SDS011;2271;49.464;11.070;2023-04-28T04:38:57;4.63;;;3.73;;
4517;SDS011;2271;49.464;11.070;2023-04-28T04:41:24;5.85;;;3.60;;
4517;SDS011;2271;49.464;11.070;2023-04-28T04:43:51;4.68;;;3.58;;
4517;SDS011;2271;49.464;11.070;2023-04-28T04:46:16;4.05;;;3.63;;
4517;SDS011;2271;49.464;11.070;2023-04-28T04:48:42;9.13;;;3.88;;
4517;SDS011;2271;49.464;11.070;2023-04-28T04:51:08;7.32;;;3.53;;
4517;SDS011;2271;49.464;11.070;2023-04-28T04:53:33;7.07;;;3.42;;
4517;SDS011;2271;49.464;11.070;2023-04-28T04:55:59;6.77;;;3.17;;
4517;SDS011;2271;49.464;11.070;2023-04-28T04:58:26;6.47;;;3.40;;
4517;SDS011;2271;49.464;11.070;2023-04-28T05:00:52;4.15;;;3.35;;
4517;SDS011;2271;49.464;11.070;2023-04-28T05:03:18;4.68;;;3.40;;
4517;SDS011;2271;49.464;11.070;2023-04-28T05:05:44;5.60;;;3.13;;
4517;SDS011;2271;49.464;11.070;2023-04-28T05:08:10;3.67;;;3.03;;
4517;SDS011;2271;49.464;11.070;2023-04-28T05:10:36;6.90;;;4.07;;
4517;SDS011;2271;49.464;11.070;2023-04-28T05:13:02;9.97;;;3.87;;
4517;SDS011;2271;49.464;11.070;2023-04-28T05:15:28;10.33;;;3.90;;
4517;SDS011;2271;49.464;11.070;2023-04-28T05:17:54;4.50;;;3.90;;
4517;SDS011;2271;49.464;11.070;2023-04-28T05:20:20;5.27;;;3.93;;
4517;SDS011;2271;49.464;11.070;2023-04-28T05:22:47;4.27;;;3.43;;
4517;SDS011;2271;49.464;11.070;2023-04-28T05:25:13;5.05;;;3.80;;
4517;SDS011;2271;49.464;11.070;2023-04-28T05:27:38;6.10;;;3.97;;
4517;SDS011;2271;49.464;11.070;2023-04-28T05:30:06;8.93;;;4.30;;
4517;SDS011;2271;49.464;11.070;2023-04-28T05:32:33;15.43;;;11.15;;
4517;SDS011;2271;49.464;11.070;2023-04-28T05:34:59;13.60;;;7.53;;
4517;SDS011;2271;49.464;11.070;2023-04-28T05:37:25;12.90;;;7.68;;
4517;SDS011;2271;49.464;11.070;2023-04-28T05:39:50;6.65;;;4.88;;
4517;SDS011;2271;49.464;11.070;2023-04-28T05:42:16;5.45;;;4.13;;
4517;SDS011;2271;49.464;11.070;2023-04-28T05:44:42;6.10;;;5.53;;
4517;SDS011;2271;49.464;11.070;2023-04-28T05:47:07;5.22;;;3.72;;
4517;SDS011;2271;49.464;11.070;2023-04-28T05:49:33;8.48;;;4.45;;
4517;SDS011;2271;49.464;11.070;2023-04-28T05:51:59;8.75;;;4.10;;
4517;SDS011;2271;49.464;11.070;2023-04-28T05:54:24;6.90;;;4.35;;
4517;SDS011;2271;49.464;11.070;2023-04-28T05:56:51;5.85;;;3.90;;
4517;SDS011;2271;49.464;11.070;2023-04-28T05:59:17;9.10;;;4.35;;
4517;SDS011;2271;49.464;11.070;2023-04-28T06:01:43;5.20;;;4.28;;
4517;SDS011;2271;49.464;11.070;2023-04-28T06:04:09;7.53;;;4.03;;
4517;SDS011;2271;49.464;11.070;2023-04-28T06:06:35;4.35;;;3.58;;
4517;SDS011;2271;49.464;11.070;2023-04-28T06:09:01;6.93;;;4.05;;
4517;SDS011;2271;49.464;11.070;2023-04-28T06:11:27;7.95;;;4.10;;
4517;SDS011;2271;49.464;11.070;2023-04-28T06:13:52;8.15;;;3.80;;
4517;SDS011;2271;49.464;11.070;2023-04-28T06:16:18;4.22;;;3.83;;
4517;SDS011;2271;49.464;11.070;2023-04-28T06:18:44;5.97;;;4.20;;
4517;SDS011;2271;49.464;11.070;2023-04-28T06:21:10;7.85;;;4.35;;
4517;SDS011;2271;49.464;11.070;2023-04-28T06:23:35;7.28;;;4.00;;
4517;SDS011;2271;49.464;11.070;2023-04-28T06:26:02;4.68;;;4.15;;
4517;SDS011;2271;49.464;11.070;2023-04-28T06:28:28;4.32;;;3.55;;
4517;SDS011;2271;49.464;11.070;2023-04-28T06:30:54;4.43;;;4.03;;
4517;SDS011;2271;49.464;11.070;2023-04-28T06:33:19;5.75;;;4.03;;
4517;SDS011;2271;49.464;11.070;2023-04-28T06:35:45;7.38;;;4.60;;
4517;SDS011;2271;49.464;11.070;2023-04-28T06:38:11;4.13;;;3.57;;
4517;SDS011;2271;49.464;11.070;2023-04-28T06:40:37;5.50;;;3.60;;
4517;SDS011;2271;49.464;11.070;2023-04-28T06:43:04;5.43;;;3.58;;
4517;SDS011;2271;49.464;11.070;2023-04-28T06:45:30;7.03;;;4.10;;
4517;SDS011;2271;49.464;11.070;2023-04-28T06:47:56;7.43;;;4.13;;
4517;SDS011;2271;49.464;11.070;2023-04-28T06:50:22;4.30;;;3.90;;
4517;SDS011;2271;49.464;11.070;2023-04-28T06:52:48;7.13;;;3.50;;
4517;SDS011;2271;49.464;11.070;2023-04-28T06:55:14;4.03;;;3.70;;
4517;SDS011;2271;49.464;11.070;2023-04-28T06:57:41;5.28;;;3.58;;
4517;SDS011;2271;49.464;11.070;2023-04-28T07:00:07;3.95;;;3.35;;
4517;SDS011;2271;49.464;11.070;2023-04-28T07:02:34;5.55;;;4.28;;
4517;SDS011;2271;49.464;11.070;2023-04-28T07:05:01;9.63;;;4.38;;
4517;SDS011;2271;49.464;11.070;2023-04-28T07:07:27;6.13;;;4.90;;
4517;SDS011;2271;49.464;11.070;2023-04-28T07:09:53;6.80;;;4.40;;
4517;SDS011;2271;49.464;11.070;2023-04-28T07:12:20;13.47;;;5.73;;
4517;SDS011;2271;49.464;11.070;2023-04-28T07:14:46;8.80;;;4.80;;
4517;SDS011;2271;49.464;11.070;2023-04-28T07:17:12;10.27;;;4.60;;
4517;SDS011;2271;49.464;11.070;2023-04-28T07:19:38;6.30;;;4.43;;
4517;SDS011;2271;49.464;11.070;2023-04-28T07:22:03;7.77;;;5.23;;
4517;SDS011;2271;49.464;11.070;2023-04-28T07:24:29;5.35;;;4.40;;
4517;SDS011;2271;49.464;11.070;2023-04-28T07:26:55;5.87;;;4.23;;
4517;SDS011;2271;49.464;11.070;2023-04-28T07:29:21;5.53;;;4.20;;
4517;SDS011;2271;49.464;11.070;2023-04-28T07:31:47;6.30;;;5.17;;
4517;SDS011;2271;49.464;11.070;2023-04-28T07:34:13;7.67;;;4.63;;
4517;SDS011;2271;49.464;11.070;2023-04-28T07:36:39;8.63;;;4.47;;
4517;SDS011;2271;49.464;11.070;2023-04-28T07:39:05;10.35;;;4.38;;
4517;SDS011;2271;49.464;11.070;2023-04-28T07:41:34;7.50;;;5.33;;
4517;SDS011;2271;49.464;11.070;2023-04-28T07:44:01;7.10;;;4.95;;
4517;SDS011;2271;49.464;11.070;2023-04-28T07:46:28;7.23;;;5.10;;
4517;SDS011;2271;49.464;11.070;2023-04-28T07:48:54;7.50;;;4.82;;
4517;SDS011;2271;49.464;11.070;2023-04-28T07:51:20;7.10;;;4.93;;
4517;SDS011;2271;49.464;11.070;2023-04-28T07:53:46;8.80;;;5.77;;
4517;SDS011;2271;49.464;11.070;2023-04-28T07:56:11;6.97;;;5.43;;
4517;SDS011;2271;49.464;11.070;2023-04-28T07:58:37;9.57;;;6.27;;
4517;SDS011;2271;49.464;11.070;2023-04-28T08:01:03;9.63;;;5.23;;
4517;SDS011;2271;49.464;11.070;2023-04-28T08:03:29;12.80;;;5.70;;
4517;SDS011;2271;49.464;11.070;2023-04-28T08:05:54;10.10;;;4.87;;
4517;SDS011;2271;49.464;11.070;2023-04-28T08:08:20;7.00;;;5.03;;
4517;SDS011;2271;49.464;11.070;2023-04-28T08:10:46;11.33;;;5.83;;
4517;SDS011;2271;49.464;11.070;2023-04-28T08:13:12;5.97;;;5.30;;
4517;SDS011;2271;49.464;11.070;2023-04-28T08:15:37;10.13;;;5.40;;
4517;SDS011;2271;49.464;11.070;2023-04-28T08:18:03;11.23;;;5.60;;
4517;SDS011;2271;49.464;11.070;2023-04-28T08:20:29;5.97;;;5.03;;
4517;SDS011;2271;49.464;11.070;2023-04-28T08:22:56;7.87;;;5.57;;
4517;SDS011;2271;49.464;11.070;2023-04-28T08:25:22;7.93;;;5.63;;
4517;SDS011;2271;49.464;11.070;2023-04-28T08:27:48;8.17;;;5.83;;
4517;SDS011;2271;49.464;11.070;2023-04-28T08:30:13;6.47;;;5.07;;
4517;SDS011;2271;49.464;11.070;2023-04-28T08:32:39;7.40;;;5.50;;
4517;SDS011;2271;49.464;11.070;2023-04-28T08:35:05;13.70;;;5.87;;
4517;SDS011;2271;49.464;11.070;2023-04-28T08:37:31;10.17;;;5.67;;
4517;SDS011;2271;49.464;11.070;2023-04-28T08:39:57;9.07;;;5.97;;
4517;SDS011;2271;49.464;11.070;2023-04-28T08:42:33;10.25;;;6.28;;
4517;SDS011;2271;49.464;11.070;2023-04-28T08:44:59;9.05;;;5.53;;
4517;SDS011;2271;49.464;11.070;2023-04-28T08:47:37;9.10;;;6.03;;
4517;SDS011;2271;49.464;11.070;2023-04-28T08:50:05;8.17;;;5.50;;
4517;SDS011;2271;49.464;11.070;2023-04-28T08:52:32;9.90;;;5.82;;
4517;SDS011;2271;49.464;11.070;2023-04-28T08:54:59;8.07;;;5.97;;
4517;SDS011;2271;49.464;11.070;2023-04-28T08:57:32;6.67;;;5.43;;
4517;SDS011;2271;49.464;11.070;2023-04-28T09:00:03;6.25;;;5.65;;
4517;SDS011;2271;49.464;11.070;2023-04-28T09:02:30;7.05;;;5.60;;
4517;SDS011;2271;49.464;11.070;2023-04-28T09:04:56;7.50;;;5.53;;
4517;SDS011;2271;49.464;11.070;2023-04-28T09:07:22;7.97;;;6.07;;
4517;SDS011;2271;49.464;11.070;2023-04-28T09:09:47;6.57;;;5.93;;
4517;SDS011;2271;49.464;11.070;2023-04-28T09:12:13;7.80;;;5.40;;
4517;SDS011;2271;49.464;11.070;2023-04-28T09:14:39;8.37;;;5.23;;
4517;SDS011;2271;49.464;11.070;2023-04-28T09:17:09;6.03;;;5.43;;
4517;SDS011;2271;49.464;11.070;2023-04-28T09:19:40;8.17;;;5.47;;
4517;SDS011;2271;49.464;11.070;2023-04-28T09:22:08;7.17;;;5.20;;
4517;SDS011;2271;49.464;11.070;2023-04-28T09:24:38;5.87;;;5.10;;
4517;SDS011;2271;49.464;11.070;2023-04-28T09:27:07;10.30;;;6.00;;
4517;SDS011;2271;49.464;11.070;2023-04-28T09:29:36;8.13;;;5.13;;
4517;SDS011;2271;49.464;11.070;2023-04-28T09:32:16;6.87;;;5.43;;
4517;SDS011;2271;49.464;11.070;2023-04-28T09:39:49;9.68;;;6.40;;
4517;SDS011;2271;49.464;11.070;2023-04-28T09:45:08;10.37;;;6.17;;
4517;SDS011;2271;49.464;11.070;2023-04-28T09:47:36;8.20;;;5.97;;
4517;SDS011;2271;49.464;11.070;2023-04-28T09:50:07;9.27;;;6.20;;
4517;SDS011;2271;49.464;11.070;2023-04-28T09:52:36;9.20;;;6.13;;
4517;SDS011;2271;49.464;11.070;2023-04-28T09:55:03;8.38;;;6.32;;
4517;SDS011;2271;49.464;11.070;2023-04-28T09:57:31;7.47;;;6.50;;
4517;SDS011;2271;49.464;11.070;2023-04-28T09:59:58;11.57;;;6.47;;
4517;SDS011;2271;49.464;11.070;2023-04-28T10:02:25;9.27;;;7.00;;
4517;SDS011;2271;49.464;11.070;2023-04-28T10:04:51;12.40;;;6.93;;
4517;SDS011;2271;49.464;11.070;2023-04-28T10:07:17;10.67;;;6.97;;
4517;SDS011;2271;49.464;11.070;2023-04-28T10:09:46;10.30;;;6.67;;
4517;SDS011;2271;49.464;11.070;2023-04-28T10:12:14;11.10;;;7.33;;
4517;SDS011;2271;49.464;11.070;2023-04-28T10:14:47;9.40;;;7.80;;
4517;SDS011;2271;49.464;11.070;2023-04-28T10:17:15;11.50;;;7.80;;
4517;SDS011;2271;49.464;11.070;2023-04-28T10:19:42;14.13;;;7.50;;
4517;SDS011;2271;49.464;11.070;2023-04-28T10:27:47;12.10;;;7.70;;
4517;SDS011;2271;49.464;11.070;2023-04-28T10:32:41;10.02;;;7.43;;
4517;SDS011;2271;49.464;11.070;2023-04-28T10:38:15;8.93;;;6.70;;
4517;SDS011;2271;49.464;11.070;2023-04-28T10:40:42;9.32;;;7.22;;
4517;SDS011;2271;49.464;11.070;2023-04-28T10:48:18;8.70;;;6.57;;
4517;SDS011;2271;49.464;11.070;2023-04-28T10:58:49;10.40;;;7.72;;
4517;SDS011;2271;49.464;11.070;2023-04-28T11:06:20;7.95;;;6.72;;
4517;SDS011;2271;49.464;11.070;2023-04-28T11:08:48;8.75;;;6.90;;
4517;SDS011;2271;49.464;11.070;2023-04-28T11:11:14;8.07;;;6.50;;
4517;SDS011;2271;49.464;11.070;2023-04-28T11:13:45;9.50;;;7.15;;
4517;SDS011;2271;49.464;11.070;2023-04-28T11:16:18;12.65;;;7.85;;
4517;SDS011;2271;49.464;11.070;2023-04-28T11:18:52;9.70;;;7.97;;
4517;SDS011;2271;49.464;11.070;2023-04-28T11:21:19;8.80;;;6.80;;
4517;SDS011;2271;49.464;11.070;2023-04-28T11:23:46;8.98;;;6.85;;
4517;SDS011;2271;49.464;11.070;2023-04-28T11:26:12;6.80;;;5.88;;
4517;SDS011;2271;49.464;11.070;2023-04-28T11:28:54;10.95;;;6.30;;
4517;SDS011;2271;49.464;11.070;2023-04-28T11:31:22;9.95;;;6.95;;
4517;SDS011;2271;49.464;11.070;2023-04-28T11:36:21;6.75;;;5.85;;
4517;SDS011;2271;49.464;11.070;2023-04-28T11:38:50;6.20;;;5.30;;
4517;SDS011;2271;49.464;11.070;2023-04-28T11:41:16;6.30;;;5.35;;
4517;SDS011;2271;49.464;11.070;2023-04-28T11:43:42;7.38;;;5.97;;
4517;SDS011;2271;49.464;11.070;2023-04-28T11:46:07;16.75;;;9.52;;
4517;SDS011;2271;49.464;11.070;2023-04-28T11:48:33;14.10;;;8.15;;
4517;SDS011;2271;49.464;11.070;2023-04-28T11:50:59;9.00;;;6.20;;
4517;SDS011;2271;49.464;11.070;2023-04-28T11:53:41;14.38;;;8.40;;
4517;SDS011;2271;49.464;11.070;2023-04-28T11:56:08;18.95;;;10.70;;
4517;SDS011;2271;49.464;11.070;2023-04-28T11:58:33;10.60;;;7.78;;
4517;SDS011;2271;49.464;11.070;2023-04-28T12:01:09;9.80;;;6.10;;
4517;SDS011;2271;49.464;11.070;2023-04-28T12:03:46;13.48;;;8.00;;
4517;SDS011;2271;49.464;11.070;2023-04-28T12:06:18;11.73;;;8.20;;
4517;SDS011;2271;49.464;11.070;2023-04-28T12:08:44;25.80;;;14.77;;
4517;SDS011;2271;49.464;11.070;2023-04-28T12:11:10;8.68;;;7.18;;
4517;SDS011;2271;49.464;11.070;2023-04-28T12:13:40;5.35;;;4.57;;
4517;SDS011;2271;49.464;11.070;2023-04-28T12:16:06;6.38;;;5.07;;
4517;SDS011;2271;49.464;11.070;2023-04-28T12:18:33;6.68;;;4.90;;
4517;SDS011;2271;49.464;11.070;2023-04-28T12:21:03;5.18;;;4.65;;
4517;SDS011;2271;49.464;11.070;2023-04-28T12:23:29;6.53;;;5.90;;
4517;SDS011;2271;49.464;11.070;2023-04-28T12:26:01;8.70;;;6.47;;
4517;SDS011;2271;49.464;11.070;2023-04-28T12:28:37;5.32;;;4.82;;
4517;SDS011;2271;49.464;11.070;2023-04-28T12:31:04;9.00;;;5.13;;
4517;SDS011;2271;49.464;11.070;2023-04-28T12:33:32;6.18;;;5.25;;
4517;SDS011;2271;49.464;11.070;2023-04-28T12:36:03;5.90;;;5.20;;
4517;SDS011;2271;49.464;11.070;2023-04-28T12:38:32;4.93;;;4.38;;
4517;SDS011;2271;49.464;11.070;2023-04-28T12:40:58;5.82;;;5.13;;
4517;SDS011;2271;49.464;11.070;2023-04-28T12:43:24;5.35;;;4.85;;
4517;SDS011;2271;49.464;11.070;2023-04-28T12:45:52;7.03;;;4.88;;
4517;SDS011;2271;49.464;11.070;2023-04-28T12:48:19;5.15;;;4.65;;
4517;SDS011;2271;49.464;11.070;2023-04-28T12:50:45;7.80;;;4.50;;
4517;SDS011;2271;49.464;11.070;2023-04-28T12:53:11;5.22;;;4.72;;
4517;SDS011;2271;49.464;11.070;2023-04-28T12:55:36;5.25;;;4.70;;
4517;SDS011;2271;49.464;11.070;2023-04-28T12:58:05;4.28;;;3.83;;
4517;SDS011;2271;49.464;11.070;2023-04-28T13:00:31;4.68;;;4.20;;
4517;SDS011;2271;49.464;11.070;2023-04-28T13:02:57;4.40;;;4.00;;
4517;SDS011;2271;49.464;11.070;2023-04-28T13:05:22;5.05;;;4.53;;
4517;SDS011;2271;49.464;11.070;2023-04-28T13:07:48;5.90;;;4.40;;
4517;SDS011;2271;49.464;11.070;2023-04-28T13:10:14;4.95;;;4.45;;
4517;SDS011;2271;49.464;11.070;2023-04-28T13:12:40;4.97;;;4.47;;
4517;SDS011;2271;49.464;11.070;2023-04-28T13:15:06;5.65;;;4.75;;
4517;SDS011;2271;49.464;11.070;2023-04-28T13:17:32;5.13;;;4.63;;
4517;SDS011;2271;49.464;11.070;2023-04-28T13:20:01;5.25;;;4.55;;
4517;SDS011;2271;49.464;11.070;2023-04-28T13:22:28;5.82;;;4.57;;
4517;SDS011;2271;49.464;11.070;2023-04-28T13:24:53;4.97;;;4.50;;
4517;SDS011;2271;49.464;11.070;2023-04-28T13:27:20;5.53;;;4.38;;
4517;SDS011;2271;49.464;11.070;2023-04-28T13:29:45;7.10;;;4.25;;
4517;SDS011;2271;49.464;11.070;2023-04-28T13:32:11;5.07;;;4.63;;
4517;SDS011;2271;49.464;11.070;2023-04-28T13:34:36;4.85;;;4.45;;
4517;SDS011;2271;49.464;11.070;2023-04-28T13:37:02;4.82;;;4.22;;
4517;SDS011;2271;49.464;11.070;2023-04-28T13:39:28;5.38;;;4.88;;
4517;SDS011;2271;49.464;11.070;2023-04-28T13:41:53;7.15;;;4.72;;
4517;SDS011;2271;49.464;11.070;2023-04-28T13:44:19;6.18;;;4.68;;
4517;SDS011;2271;49.464;11.070;2023-04-28T13:46:45;6.50;;;4.53;;
4517;SDS011;2271;49.464;11.070;2023-04-28T13:49:11;5.50;;;4.38;;
4517;SDS011;2271;49.464;11.070;2023-04-28T13:51:37;4.80;;;4.03;;
4517;SDS011;2271;49.464;11.070;2023-04-28T13:54:03;4.72;;;4.20;;
4517;SDS011;2271;49.464;11.070;2023-04-28T13:56:32;4.82;;;3.80;;
4517;SDS011;2271;49.464;11.070;2023-04-28T13:58:57;4.53;;;3.70;;
4517;SDS011;2271;49.464;11.070;2023-04-28T14:01:23;4.57;;;3.92;;
4517;SDS011;2271;49.464;11.070;2023-04-28T14:03:49;3.40;;;3.10;;
4517;SDS011;2271;49.464;11.070;2023-04-28T14:06:15;3.88;;;3.53;;
4517;SDS011;2271;49.464;11.070;2023-04-28T14:08:41;6.88;;;4.32;;
4517;SDS011;2271;49.464;11.070;2023-04-28T14:11:06;4.68;;;4.07;;
4517;SDS011;2271;49.464;11.070;2023-04-28T14:13:33;6.22;;;4.05;;
4517;SDS011;2271;49.464;11.070;2023-04-28T14:15:59;4.90;;;4.00;;
4517;SDS011;2271;49.464;11.070;2023-04-28T14:18:25;4.80;;;4.25;;
4517;SDS011;2271;49.464;11.070;2023-04-28T14:20:51;4.13;;;3.72;;
4517;SDS011;2271;49.464;11.070;2023-04-28T14:23:18;4.80;;;4.30;;
4517;SDS011;2271;49.464;11.070;2023-04-28T14:25:44;4.68;;;4.18;;
4517;SDS011;2271;49.464;11.070;2023-04-28T14:28:09;4.40;;;4.00;;
4517;SDS011;2271;49.464;11.070;2023-04-28T14:30:35;4.25;;;3.75;;
4517;SDS011;2271;49.464;11.070;2023-04-28T14:33:01;4.68;;;3.38;;
4517;SDS011;2271;49.464;11.070;2023-04-28T14:35:27;3.75;;;3.45;;
4517;SDS011;2271;49.464;11.070;2023-04-28T14:37:54;4.18;;;3.78;;
4517;SDS011;2271;49.464;11.070;2023-04-28T14:40:20;5.35;;;3.65;;
4517;SDS011;2271;49.464;11.070;2023-04-28T14:42:46;3.83;;;3.50;;
4517;SDS011;2271;49.464;11.070;2023-04-28T14:45:11;4.30;;;3.88;;
4517;SDS011;2271;49.464;11.070;2023-04-28T14:47:37;6.55;;;4.10;;
4517;SDS011;2271;49.464;11.070;2023-04-28T14:50:04;5.90;;;4.32;;
4517;SDS011;2271;49.464;11.070;2023-04-28T14:52:30;4.95;;;4.45;;
4517;SDS011;2271;49.464;11.070;2023-04-28T14:54:57;4.45;;;3.67;;
4517;SDS011;2271;49.464;11.070;2023-04-28T14:57:24;5.50;;;3.90;;
4517;SDS011;2271;49.464;11.070;2023-04-28T14:59:50;3.60;;;3.30;;
4517;SDS011;2271;49.464;11.070;2023-04-28T15:02:17;3.35;;;3.05;;
4517;SDS011;2271;49.464;11.070;2023-04-28T15:04:45;4.70;;;3.83;;
4517;SDS011;2271;49.464;11.070;2023-04-28T15:07:12;4.35;;;3.38;;
4517;SDS011;2271;49.464;11.070;2023-04-28T15:09:37;4.03;;;3.63;;
4517;SDS011;2271;49.464;11.070;2023-04-28T15:12:03;3.90;;;3.10;;
4517;SDS011;2271;49.464;11.070;2023-04-28T15:14:30;6.63;;;3.17;;
4517;SDS011;2271;49.464;11.070;2023-04-28T15:16:55;3.08;;;2.80;;
4517;SDS011;2271;49.464;11.070;2023-04-28T15:19:21;3.30;;;3.08;;
4517;SDS011;2271;49.464;11.070;2023-04-28T15:21:47;3.45;;;3.13;;
4517;SDS011;2271;49.464;11.070;2023-04-28T15:24:13;4.45;;;3.13;;
4517;SDS011;2271;49.464;11.070;2023-04-28T15:26:40;4.65;;;3.20;;
4517;SDS011;2271;49.464;11.070;2023-04-28T15:29:06;7.03;;;3.30;;
4517;SDS011;2271;49.464;11.070;2023-04-28T15:31:33;3.72;;;3.42;;
4517;SDS011;2271;49.464;11.070;2023-04-28T15:33:59;4.40;;;3.80;;
4517;SDS011;2271;49.464;11.070;2023-04-28T15:36:24;3.35;;;3.05;;